首页
METAR-TAF:

METAR-TAF

机场 :

維多利亞港口, 不列颠哥伦比亚, 加拿大

纬度: 48-25N, 经度: 123-20W, 海拔: 5米

当前天气观测

该预报发布于22分钟前的18:00 UTC
风速5节,风向南转西南
温度 16°C
湿度 82%
气压 1023 hPa
能見度: 24.1公里
散云层高于2000英尺
多云层高于5000英尺
多云层高于23000英尺

METAR: CYWH 081800Z 21005KT 15SM SCT020 BKN050 BKN230 16/13 A3020 RMK SC3SC2CI2 SLP228

时间: 11:22 (18:22 UTC)

预报

该预报发布于3小时和7分钟前的15:15 UTC
预报有效从08日的 15点(UTC)到 09日的 02点(UTC)
风速3节,风向多变
能見度: 10公里
少量云层高于2000英尺
散云层高于5000英尺
多云层高于8000英尺
短暂存在
从 08日的 15点(UTC)到 08日的 21点(UTC)
散云层高于2000英尺
多云层高于5000英尺
成为
从 08日的 18点(UTC)到 08日的 20点(UTC)
风速6节,风向西南
从 08日的 2100点(UTC)
风速6节,风向西南
能見度: 10公里
散云层高于6000英尺
短暂存在
从 08日的 21点(UTC)到 09日的 02点(UTC)
多云层高于6000英尺

TAF: CYWH 081515Z 0815/0902 VRB03KT P6SM FEW020 SCT050 BKN080 TEMPO 0815/0821 SCT020 BKN050 BECMG 0818/0820 22006KT FM082100 22006KT P6SM SCT060 TEMPO 0821/0902 BKN060 RMK NXT FCST BY 082100Z

超过4000个机场的气象观测和天气预报(METAR&TAF报告)。

可查询的气象台以黄色和红色小点在地图上表示。

将鼠标移到小点上方,可查看气象台名称。

然后点击查看天气观测和预报。

如需切换地图:点击带黑十字的绿色按钮放大地图;点击带横线的绿色按钮缩小地图;或者点击绿色箭头查看邻近地区的地图。


METAR-TAF: